Time;durP1;ratioP1;P1;durP2;ratioP2;P2;SDS_P1;SDS_P2;PMS_P1;PMS_P2;Temp;Humidity;BMP_temperature;BMP_pressure;BME280_temperature;BME280_humidity;BME280_pressure;Samples;Min_cycle;Max_cycle;Signal;HPM_P1;HPM_P2
2021/09/14 00:01:54;;;;;;;7.40;4.55;;;;;;;22.00;63.18;100688.47;5047850;28;20034;-56
2021/09/14 00:04:20;;;;;;;6.18;4.80;;;;;;;22.01;63.34;100683.81;5052719;28;20025;-57
2021/09/14 00:06:47;;;;;;;7.20;4.80;;;;;;;22.01;63.14;100689.28;5047980;28;20509;-56
2021/09/14 00:09:13;;;;;;;5.60;4.40;;;;;;;22.00;63.13;100683.00;5047391;28;20035;-56
2021/09/14 00:11:41;;;;;;;6.75;5.13;;;;;;;22.01;63.07;100675.59;5046799;28;20024;-58
2021/09/14 00:14:07;;;;;;;5.15;4.65;;;;;;;21.99;63.49;100680.50;5053990;28;20024;-57
2021/09/14 00:16:32;;;;;;;9.52;5.15;;;;;;;22.00;62.93;100687.66;5048821;28;20522;-56
2021/09/14 00:18:58;;;;;;;6.97;4.97;;;;;;;22.00;63.04;100693.94;5049086;28;20075;-56
2021/09/14 00:21:24;;;;;;;7.78;5.07;;;;;;;21.99;63.05;100685.97;5048943;28;20029;-56
2021/09/14 00:23:50;;;;;;;7.38;4.65;;;;;;;22.00;63.18;100693.94;5042367;28;20020;-57
2021/09/14 00:26:16;;;;;;;5.70;5.10;;;;;;;21.96;62.90;100684.56;5048437;28;20036;-56
2021/09/14 00:28:42;;;;;;;6.88;5.03;;;;;;;21.99;62.91;100695.03;5043153;28;20085;-58
2021/09/14 00:31:07;;;;;;;6.78;4.35;;;;;;;21.99;63.19;100689.56;5046517;28;21604;-55
2021/09/14 00:33:33;;;;;;;4.82;4.32;;;;;;;22.00;63.21;100690.38;5049814;28;20118;-56
2021/09/14 00:36:06;;;;;;;6.70;4.50;;;;;;;22.00;62.93;100673.97;5043468;28;20029;-56
2021/09/14 00:38:31;;;;;;;7.38;4.88;;;;;;;21.99;63.05;100669.53;5044958;28;20044;-57
2021/09/14 00:40:57;;;;;;;6.03;4.75;;;;;;;21.99;63.07;100675.03;5045905;28;20060;-57
2021/09/14 00:43:23;;;;;;;7.35;5.25;;;;;;;21.98;62.94;100679.66;5043805;28;20043;-56
2021/09/14 00:45:51;;;;;;;7.95;4.70;;;;;;;21.98;62.93;100676.94;5042879;28;20035;-56
2021/09/14 00:48:17;;;;;;;6.03;4.97;;;;;;;21.97;63.17;100675.28;5043546;28;20521;-56
2021/09/14 00:50:42;;;;;;;6.45;4.80;;;;;;;21.98;62.81;100673.38;5041501;28;20032;-56
2021/09/14 00:53:09;;;;;;;6.80;4.65;;;;;;;21.98;63.05;100673.38;5042259;28;20770;-56
2021/09/14 00:55:34;;;;;;;7.28;4.50;;;;;;;21.99;62.86;100675.03;5044799;28;20461;-56
2021/09/14 00:58:00;;;;;;;5.68;4.55;;;;;;;21.97;63.21;100671.72;5043478;28;20037;-55
2021/09/14 01:00:27;;;;;;;7.90;4.60;;;;;;;21.97;62.92;100683.50;5042575;28;20121;-53
2021/09/14 01:02:52;;;;;;;6.25;4.60;;;;;;;21.97;63.05;100682.69;5049339;28;20156;-56
2021/09/14 01:05:19;;;;;;;6.18;4.55;;;;;;;21.97;62.76;100678.03;5052799;28;20028;-56
2021/09/14 01:07:46;;;;;;;6.88;4.80;;;;;;;21.97;63.21;100683.50;5046502;28;20090;-58
2021/09/14 01:10:13;;;;;;;8.40;5.30;;;;;;;21.97;62.80;100671.72;5043519;28;20060;-55
2021/09/14 01:12:39;;;;;;;6.68;4.78;;;;;;;21.97;63.05;100671.72;5048884;28;20083;-56
2021/09/14 01:15:06;;;;;;;7.88;4.70;;;;;;;21.98;62.73;100667.91;5045770;28;20104;-56
2021/09/14 01:17:32;;;;;;;6.80;5.43;;;;;;;21.96;63.04;100662.66;5044967;28;20108;-57
2021/09/14 01:19:58;;;;;;;8.32;4.70;;;;;;;21.97;63.28;100669.00;5046770;28;20091;-57
2021/09/14 01:22:27;;;;;;;6.68;4.30;;;;;;;21.97;63.04;100658.03;5047256;28;20032;-54
2021/09/14 01:24:53;;;;;;;9.13;5.10;;;;;;;21.97;63.13;100666.25;5046632;28;20468;-56
2021/09/14 01:27:19;;;;;;;6.60;4.50;;;;;;;21.96;63.09;100659.94;5045852;28;20027;-54
2021/09/14 01:32:48;;;;;;;5.63;4.57;;;;;;;21.95;62.83;100661.03;5026248;28;20845;-57
2021/09/14 01:35:19;;;;;;;7.25;4.60;;;;;;;21.95;62.98;100661.84;5041998;28;20068;-56
2021/09/14 01:37:45;;;;;;;6.90;5.03;;;;;;;21.96;62.92;100659.94;5047536;28;20040;-57
2021/09/14 01:40:11;;;;;;;5.68;4.45;;;;;;;21.95;62.89;100653.63;5045721;28;20036;-56
2021/09/14 01:42:37;;;;;;;6.40;4.47;;;;;;;21.95;62.83;100658.28;5042849;28;20082;-55
2021/09/14 01:45:04;;;;;;;7.18;4.70;;;;;;;21.95;62.87;100652.81;5047487;28;20025;-56
2021/09/14 01:47:29;;;;;;;5.40;4.78;;;;;;;21.94;63.03;100657.47;5049185;28;20048;-57
2021/09/14 01:49:55;;;;;;;6.07;4.68;;;;;;;21.95;62.85;100652.81;5044219;28;20028;-56
2021/09/14 01:52:20;;;;;;;6.43;5.00;;;;;;;21.95;63.21;100647.34;5044750;28;20024;-57
2021/09/14 01:54:49;;;;;;;6.43;4.22;;;;;;;21.95;63.03;100648.16;5043687;28;20104;-54
2021/09/14 01:57:15;;;;;;;6.35;4.60;;;;;;;21.95;62.92;100647.34;5050214;28;20042;-57
2021/09/14 01:59:41;;;;;;;6.30;4.22;;;;;;;21.94;62.88;100645.69;5044235;28;20021;-56
2021/09/14 02:02:21;;;;;;;6.20;4.38;;;;;;;21.95;62.83;100647.34;5045292;28;20078;-57
2021/09/14 02:05:06;;;;;;;6.65;4.60;;;;;;;21.94;63.05;100640.22;5047626;28;20073;-57
2021/09/14 02:07:49;;;;;;;8.05;4.70;;;;;;;21.94;62.98;100641.03;5044240;28;20025;-55
2021/09/14 02:40:50;;;;;;;7.25;4.18;;;;;;;21.91;63.04;100638.81;5043885;28;20120;-55
2021/09/14 02:59:31;;;;;;;6.40;4.05;;;;;;;21.90;63.23;100633.56;5050452;28;20021;-55
2021/09/14 03:01:56;;;;;;;4.45;3.83;;;;;;;21.90;62.91;100633.56;5048074;28;20031;-55
2021/09/14 03:04:22;;;;;;;4.85;3.80;;;;;;;21.89;62.88;100640.16;5055609;28;20540;-55
2021/09/14 03:06:48;;;;;;;4.90;3.70;;;;;;;21.89;63.00;100638.22;5055498;28;20025;-55
2021/09/14 03:09:13;;;;;;;5.22;4.00;;;;;;;21.90;63.15;100639.06;5056194;28;20028;-57
2021/09/14 03:11:39;;;;;;;5.20;4.07;;;;;;;21.89;62.78;100631.94;5047504;28;20064;-57
2021/09/14 03:14:04;;;;;;;5.85;4.40;;;;;;;21.90;62.87;100633.56;5047370;28;20119;-56
2021/09/14 03:16:30;;;;;;;5.38;3.90;;;;;;;21.89;62.61;100632.75;5045470;28;20339;-56
2021/09/14 03:18:56;;;;;;;4.60;3.80;;;;;;;21.90;62.99;100625.38;5051904;28;20024;-56
2021/09/14 03:21:21;;;;;;;6.15;4.45;;;;;;;21.90;62.93;100628.09;5046379;28;20028;-56
2021/09/14 03:23:47;;;;;;;4.80;3.55;;;;;;;21.90;63.12;100626.19;5050320;28;20024;-58
2021/09/14 03:26:13;;;;;;;5.65;3.90;;;;;;;21.89;62.71;100627.28;5048779;28;20454;-55
2021/09/14 03:28:38;;;;;;;5.50;3.85;;;;;;;21.89;62.75;100627.28;5045683;28;20032;-56
2021/09/14 03:31:05;;;;;;;6.03;3.85;;;;;;;21.89;62.65;100621.81;5048839;28;20021;-54
2021/09/14 03:33:30;;;;;;;4.68;3.47;;;;;;;21.90;62.77;100619.88;5048130;28;20696;-55
2021/09/14 03:35:56;;;;;;;5.68;4.00;;;;;;;21.88;62.77;100616.56;5046001;28;20124;-57
2021/09/14 03:38:22;;;;;;;7.00;3.55;;;;;;;21.89;62.74;100618.25;5044683;28;20036;-57
2021/09/14 03:40:48;;;;;;;4.70;3.95;;;;;;;21.89;62.80;100620.97;5047653;28;20033;-56
2021/09/14 03:43:14;;;;;;;5.03;3.28;;;;;;;21.88;63.01;100608.38;5048649;28;20120;-55
2021/09/14 03:45:42;;;;;;;7.40;4.78;;;;;;;21.89;62.59;100620.97;5053699;28;20155;-55
2021/09/14 03:48:08;;;;;;;5.25;3.97;;;;;;;21.88;62.69;100614.66;5049987;28;20043;-58
2021/09/14 03:50:34;;;;;;;4.57;3.88;;;;;;;21.89;62.90;100610.03;5048259;28;20098;-58
2021/09/14 03:53:00;;;;;;;4.10;3.38;;;;;;;21.88;62.84;100609.19;5047814;28;20521;-57
2021/09/14 03:55:25;;;;;;;5.72;3.78;;;;;;;21.88;62.69;100603.72;5049663;28;20017;-57
2021/09/14 03:57:51;;;;;;;5.63;4.20;;;;;;;21.88;62.76;100600.97;5057148;28;20036;-57
2021/09/14 04:00:17;;;;;;;5.50;3.55;;;;;;;21.89;63.01;100601.81;5049919;28;20024;-57
2021/09/14 04:02:48;;;;;;;4.25;3.55;;;;;;;21.86;63.10;100600.44;5047727;28;20070;-57
2021/09/14 04:08:50;;;;;;;4.78;3.78;;;;;;;21.88;62.54;100592.75;5048607;28;20025;-59
2021/09/14 04:10:41;;;;;;;6.57;3.90;;;;;;;21.88;62.76;100586.47;5049103;28;20131;-53
2021/09/14 04:13:08;;;;;;;5.22;3.95;;;;;;;21.88;62.81;100586.47;5050161;28;20031;-57
2021/09/14 04:15:34;;;;;;;4.95;3.95;;;;;;;21.87;62.82;100591.13;5046592;28;20380;-55
2021/09/14 04:18:00;;;;;;;5.32;3.88;;;;;;;21.87;63.07;100579.34;5051225;28;20032;-57
2021/09/14 04:20:25;;;;;;;4.93;4.07;;;;;;;21.86;63.13;100584.00;5050817;28;20033;-56
2021/09/14 04:22:51;;;;;;;4.47;3.67;;;;;;;21.87;62.71;100580.16;5047746;28;20040;-57
2021/09/14 04:25:17;;;;;;;5.43;4.20;;;;;;;21.86;63.09;100578.53;5045461;28;20483;-56
2021/09/14 04:27:42;;;;;;;5.25;3.97;;;;;;;21.87;63.02;100579.34;5050859;28;20036;-57
2021/09/14 04:30:09;;;;;;;6.07;3.75;;;;;;;21.87;62.81;100579.34;5045786;28;20314;-56
2021/09/14 04:32:38;;;;;;;4.93;3.80;;;;;;;21.86;63.24;100577.69;5051684;28;20149;-56
2021/09/14 04:35:04;;;;;;;5.40;3.88;;;;;;;21.85;62.71;100574.13;5053480;28;20467;-57
2021/09/14 04:37:30;;;;;;;4.38;3.72;;;;;;;21.85;62.93;100571.38;5050624;28;20121;-57
2021/09/14 04:39:56;;;;;;;4.85;3.88;;;;;;;21.86;62.80;100578.53;5045692;28;20052;-56
2021/09/14 04:42:21;;;;;;;4.00;3.60;;;;;;;21.85;62.84;100574.13;5047956;28;20078;-56
2021/09/14 04:44:47;;;;;;;5.05;3.97;;;;;;;21.85;62.65;100576.84;5049555;28;20027;-56
2021/09/14 04:47:13;;;;;;;4.72;3.78;;;;;;;21.85;63.00;100574.13;5048002;28;21553;-57
2021/09/14 04:49:38;;;;;;;5.38;3.72;;;;;;;21.84;62.62;100577.94;5048208;28;20036;-57
2021/09/14 04:52:06;;;;;;;4.80;3.85;;;;;;;21.85;62.93;100582.31;5047862;28;20029;-56
2021/09/14 04:54:33;;;;;;;4.30;3.47;;;;;;;21.85;62.82;100578.78;5048495;28;20054;-56
2021/09/14 04:56:58;;;;;;;4.80;3.80;;;;;;;21.85;62.95;100576.03;5046791;28;20119;-58
2021/09/14 04:59:24;;;;;;;5.00;4.05;;;;;;;21.84;63.00;100580.69;5049923;28;20027;-56
2021/09/14 05:01:52;;;;;;;5.88;4.10;;;;;;;21.84;63.04;100575.22;5051343;28;20096;-56
2021/09/14 05:04:17;;;;;;;4.80;4.10;;;;;;;21.84;63.00;100580.69;5046137;28;20032;-57
2021/09/14 05:06:43;;;;;;;4.75;3.83;;;;;;;21.84;62.71;100586.16;5047784;28;20025;-57
2021/09/14 05:09:09;;;;;;;5.18;4.00;;;;;;;21.85;62.48;100581.50;5043315;28;20722;-56
2021/09/14 05:11:34;;;;;;;6.18;4.15;;;;;;;21.85;62.70;100584.25;5045700;28;20021;-57
2021/09/14 05:14:00;;;;;;;5.75;4.05;;;;;;;21.83;62.87;100579.03;5045806;28;20021;-56
2021/09/14 05:16:25;;;;;;;6.28;3.70;;;;;;;21.85;62.83;100584.25;5046782;28;20024;-56
2021/09/14 05:18:51;;;;;;;4.82;4.10;;;;;;;21.84;62.68;100583.41;5045103;28;20028;-56
2021/09/14 05:21:18;;;;;;;5.10;4.15;;;;;;;21.84;62.64;100577.13;5046117;28;20032;-57
2021/09/14 05:23:44;;;;;;;6.25;3.80;;;;;;;21.85;62.59;100584.25;5044944;28;20033;-55
2021/09/14 05:26:11;;;;;;;5.10;4.10;;;;;;;21.84;62.56;100582.59;5043996;28;20040;-58
2021/09/14 05:28:38;;;;;;;6.32;3.95;;;;;;;21.84;62.98;100579.88;5046471;28;20550;-56
2021/09/14 05:31:06;;;;;;;5.28;4.20;;;;;;;21.83;62.63;100584.50;5047442;28;20909;-55
2021/09/14 05:33:33;;;;;;;8.35;4.13;;;;;;;21.83;62.85;100586.41;5046849;28;20024;-56
2021/09/14 05:35:59;;;;;;;5.55;3.72;;;;;;;21.83;62.64;100581.78;5046672;28;20032;-56
2021/09/14 05:38:25;;;;;;;4.88;3.40;;;;;;;21.83;62.98;100581.78;5046454;28;20077;-56
2021/09/14 05:40:55;;;;;;;5.32;4.13;;;;;;;21.83;63.08;100584.50;5046956;28;20032;-57
2021/09/14 05:43:26;;;;;;;9.38;4.30;;;;;;;21.83;62.84;100590.00;5051517;28;20152;-55
2021/09/14 05:45:51;;;;;;;5.15;3.78;;;;;;;21.82;62.99;100585.56;5043170;28;20484;-57
2021/09/14 05:48:17;;;;;;;6.18;3.72;;;;;;;21.83;62.87;100583.66;5048728;28;20082;-56
2021/09/14 05:50:43;;;;;;;6.05;3.90;;;;;;;21.83;63.06;100586.41;5050303;28;20075;-56
2021/09/14 05:53:08;;;;;;;4.57;3.80;;;;;;;21.82;62.80;100588.31;5042429;28;20032;-56
2021/09/14 05:55:36;;;;;;;5.50;3.72;;;;;;;21.81;62.95;100592.16;5042633;28;20029;-56
2021/09/14 05:58:03;;;;;;;5.47;3.63;;;;;;;21.82;62.89;100595.69;5046241;28;20064;-55
2021/09/14 06:00:28;;;;;;;6.18;3.88;;;;;;;21.81;63.10;100600.34;5042442;28;20124;-57
2021/09/14 06:02:54;;;;;;;5.13;3.97;;;;;;;21.81;63.12;100603.09;5048210;28;20376;-56
2021/09/14 06:05:19;;;;;;;10.02;4.00;;;;;;;21.81;62.96;100605.00;5045788;28;20040;-56
2021/09/14 06:07:45;;;;;;;6.55;4.18;;;;;;;21.80;62.88;100606.88;5047403;28;20036;-56
2021/09/14 06:10:11;;;;;;;6.50;3.70;;;;;;;21.80;62.85;100612.38;5041790;28;20499;-57
2021/09/14 06:12:36;;;;;;;6.05;3.80;;;;;;;21.81;63.04;100615.97;5040827;28;20029;-57
2021/09/14 06:15:02;;;;;;;5.10;3.92;;;;;;;21.80;63.15;100612.38;5044733;28;20120;-57
2021/09/14 06:17:28;;;;;;;6.93;4.07;;;;;;;21.80;63.21;100608.81;5043556;28;21352;-55
2021/09/14 06:19:53;;;;;;;4.97;3.83;;;;;;;21.81;63.21;100615.97;5049325;28;20757;-54
2021/09/14 06:22:20;;;;;;;16.92;4.65;;;;;;;21.80;63.02;100612.38;5048030;28;20036;-56
2021/09/14 06:24:47;;;;;;;5.75;4.07;;;;;;;21.80;62.96;100612.38;5050760;28;20025;-54
2021/09/14 06:27:13;;;;;;;5.45;3.58;;;;;;;21.78;63.22;100611.81;5055442;28;20506;-53
2021/09/14 06:29:40;;;;;;;5.55;3.80;;;;;;;21.83;62.93;100613.78;5049447;28;20909;-57
2021/09/14 06:32:09;;;;;;;6.20;3.50;;;;;;;21.81;63.01;100622.25;5048466;28;20032;-55
2021/09/14 06:34:36;;;;;;;7.95;3.80;;;;;;;21.82;62.64;100621.16;5047791;28;20021;-58
2021/09/14 06:37:02;;;;;;;5.35;3.88;;;;;;;21.83;62.79;100628.31;5049304;28;20029;-57
2021/09/14 06:39:28;;;;;;;7.10;3.50;;;;;;;21.82;62.58;100626.63;5048712;28;20515;-56
2021/09/14 06:41:54;;;;;;;5.15;3.63;;;;;;;21.84;62.72;100621.75;5046845;28;20116;-57
2021/09/14 06:44:20;;;;;;;5.22;3.83;;;;;;;21.84;62.91;100632.69;5044101;28;20406;-57
2021/09/14 06:46:46;;;;;;;6.30;3.75;;;;;;;21.84;62.67;100637.34;5049251;28;20032;-59
2021/09/14 06:49:11;;;;;;;7.15;3.70;;;;;;;21.83;63.07;100633.78;5045156;28;20029;-57
2021/09/14 06:51:37;;;;;;;5.88;3.88;;;;;;;21.82;63.07;100640.31;5048845;28;20024;-56
2021/09/14 06:54:03;;;;;;;6.15;3.95;;;;;;;21.83;62.95;100643.88;5047622;28;20426;-56
2021/09/14 06:56:29;;;;;;;6.25;3.80;;;;;;;21.81;63.22;100638.69;5049974;28;20044;-56
2021/09/14 06:58:54;;;;;;;4.95;3.55;;;;;;;21.83;62.87;100646.63;5049930;28;20065;-55
2021/09/14 07:01:21;;;;;;;4.95;3.70;;;;;;;21.82;63.06;100654.00;5054465;28;20086;-56
2021/09/14 07:03:47;;;;;;;6.47;4.13;;;;;;;21.81;62.65;100652.34;5053653;28;20024;-57
2021/09/14 07:06:13;;;;;;;6.60;3.83;;;;;;;21.81;63.13;100655.09;5062093;28;20063;-55
2021/09/14 07:08:38;;;;;;;6.28;4.07;;;;;;;21.80;63.02;100656.16;5060401;28;20035;-56
2021/09/14 07:11:07;;;;;;;6.78;4.25;;;;;;;21.79;63.23;100651.78;5060286;28;20082;-54
2021/09/14 07:13:33;;;;;;;10.13;5.65;;;;;;;21.81;63.09;100665.22;5054628;28;20395;-56
2021/09/14 07:15:58;;;;;;;10.43;5.55;;;;;;;21.80;62.93;100658.91;5065706;28;20027;-59
2021/09/14 07:18:24;;;;;;;10.40;5.80;;;;;;;21.80;63.38;100664.38;5059036;28;20032;-57
2021/09/14 07:20:50;;;;;;;13.23;6.80;;;;;;;21.80;62.82;100664.38;5060623;28;20564;-58
2021/09/14 07:23:15;;;;;;;11.32;5.97;;;;;;;21.80;62.98;100663.53;5067159;28;20052;-56
2021/09/14 07:25:42;;;;;;;13.43;6.75;;;;;;;21.81;62.85;100673.44;5057499;28;20025;-56
2021/09/14 07:28:09;;;;;;;13.25;6.38;;;;;;;21.81;62.72;100667.97;5060464;28;20032;-56
2021/09/14 07:30:35;;;;;;;13.55;6.88;;;;;;;21.80;63.08;100672.56;5056493;28;20033;-58
2021/09/14 07:33:01;;;;;;;15.45;7.15;;;;;;;21.81;62.86;100674.25;5061797;28;20028;-57
2021/09/14 07:35:29;;;;;;;14.30;6.70;;;;;;;21.81;62.93;100674.25;5062588;28;20012;-57
2021/09/14 07:37:54;;;;;;;13.85;6.70;;;;;;;21.81;62.99;100668.78;5054708;28;20094;-57
2021/09/14 07:40:20;;;;;;;15.30;7.50;;;;;;;21.82;63.22;100667.69;5060369;28;20652;-58
2021/09/14 07:42:46;;;;;;;14.05;6.70;;;;;;;21.83;63.02;100679.47;5057087;28;20494;-57
2021/09/14 07:45:12;;;;;;;13.43;7.70;;;;;;;21.84;63.35;100681.94;5060336;28;20021;-56
2021/09/14 07:47:37;;;;;;;18.33;7.20;;;;;;;21.83;63.47;100676.72;5067244;28;20052;-55
2021/09/14 07:50:03;;;;;;;15.00;6.93;;;;;;;21.84;63.38;100672.94;5064360;28;20028;-56
2021/09/14 07:52:29;;;;;;;12.48;6.40;;;;;;;21.84;63.52;100679.22;5059948;28;20124;-57
2021/09/14 07:54:55;;;;;;;15.73;7.63;;;;;;;21.85;63.30;100666.34;5061486;28;20127;-56
2021/09/14 07:57:20;;;;;;;13.77;7.22;;;;;;;21.85;63.31;100678.13;5064485;28;20037;-58
2021/09/14 07:59:46;;;;;;;15.15;7.72;;;;;;;21.85;63.20;100680.03;5058156;28;20472;-56
2021/09/14 08:02:11;;;;;;;13.93;7.15;;;;;;;21.85;63.17;100680.03;5065099;28;20016;-56
2021/09/14 08:04:37;;;;;;;14.02;7.40;;;;;;;21.86;63.57;100677.06;5050395;28;20083;-56
2021/09/14 08:07:03;;;;;;;15.75;7.82;;;;;;;21.86;63.10;100682.53;5059833;28;20499;-58
2021/09/14 08:09:30;;;;;;;14.10;7.40;;;;;;;21.86;63.29;100681.72;5060082;28;20028;-57
2021/09/14 08:11:57;;;;;;;13.35;6.85;;;;;;;21.86;63.47;100682.53;5058256;28;20514;-55
2021/09/14 08:14:23;;;;;;;15.63;8.05;;;;;;;21.86;63.39;100682.53;5060485;28;20029;-55
2021/09/14 08:16:49;;;;;;;13.32;7.40;;;;;;;21.88;63.52;100676.78;5063847;28;20036;-58
2021/09/14 08:19:14;;;;;;;16.35;7.65;;;;;;;21.88;63.15;100680.34;5061775;28;20493;-56
2021/09/14 08:21:40;;;;;;;13.75;6.88;;;;;;;21.88;63.22;100679.53;5057941;28;20032;-56
2021/09/14 08:24:10;;;;;;;15.35;7.50;;;;;;;21.89;63.07;100686.69;5062291;28;20100;-56
2021/09/14 08:26:36;;;;;;;15.05;7.85;;;;;;;21.89;63.34;100687.50;5058482;28;20407;-57
2021/09/14 08:29:03;;;;;;;17.35;7.95;;;;;;;21.89;63.23;100687.50;5064791;28;20020;-55
2021/09/14 08:31:29;;;;;;;17.27;8.35;;;;;;;21.91;63.35;100689.97;5062846;28;21188;-57
2021/09/14 08:33:54;;;;;;;15.75;7.97;;;;;;;21.90;63.46;100689.16;5058073;28;20047;-56
2021/09/14 08:36:21;;;;;;;16.02;8.02;;;;;;;21.91;63.67;100693.56;5056697;28;20029;-57
2021/09/14 08:38:47;;;;;;;17.48;8.80;;;;;;;21.88;63.90;100685.81;5066312;28;20020;-57
2021/09/14 08:41:14;;;;;;;20.65;8.57;;;;;;;21.91;64.28;100685.34;5058113;28;20724;-56
2021/09/14 08:43:42;;;;;;;23.30;8.52;;;;;;;21.91;64.30;100696.31;5063348;28;20032;-56
2021/09/14 08:46:09;;;;;;;20.10;8.65;;;;;;;21.91;64.09;100696.31;5053908;28;20028;-56
2021/09/14 08:48:36;;;;;;;19.58;8.55;;;;;;;21.91;64.34;100700.91;5059498;28;20020;-56
2021/09/14 08:51:03;;;;;;;16.10;8.40;;;;;;;21.92;64.03;100695.22;5053333;28;20024;-56
2021/09/14 08:53:31;;;;;;;19.00;8.60;;;;;;;21.92;64.03;100697.13;5059981;28;20029;-57
2021/09/14 08:55:57;;;;;;;15.85;8.00;;;;;;;21.90;64.12;100704.75;5057826;28;20123;-56
2021/09/14 08:58:22;;;;;;;21.27;8.90;;;;;;;21.91;64.21;100704.50;5061775;28;20116;-57
2021/09/14 09:00:48;;;;;;;17.95;9.10;;;;;;;21.90;64.32;100708.31;5063874;28;20040;-56
2021/09/14 09:03:21;;;;;;;20.10;9.15;;;;;;;21.90;64.32;100710.22;5066213;28;20050;-56
2021/09/14 09:05:47;;;;;;;21.60;10.15;;;;;;;21.88;64.20;100710.47;5062272;28;20021;-57
2021/09/14 09:08:31;;;;;;;20.90;9.60;;;;;;;21.88;64.67;100713.19;5059681;28;20038;-56
2021/09/14 09:11:01;;;;;;;21.45;9.25;;;;;;;21.86;64.29;100704.44;5061297;28;20016;-56
2021/09/14 09:13:29;;;;;;;22.73;10.10;;;;;;;21.88;64.22;100718.69;5065526;28;20025;-56
2021/09/14 09:15:54;;;;;;;23.60;10.40;;;;;;;21.86;64.72;100707.16;5061523;28;20050;-56
2021/09/14 09:18:21;;;;;;;21.83;9.77;;;;;;;21.86;64.54;100712.66;5057874;28;20482;-56
2021/09/14 09:20:48;;;;;;;19.75;10.02;;;;;;;21.88;64.87;100720.59;5053796;28;20017;-56
2021/09/14 09:23:22;;;;;;;17.90;8.60;;;;;;;21.86;64.49;100715.38;5064952;28;20511;-55
2021/09/14 09:25:49;;;;;;;20.75;10.05;;;;;;;21.87;64.88;100710.72;5058676;28;20024;-57
2021/09/14 09:28:19;;;;;;;20.83;8.93;;;;;;;21.87;64.44;100719.75;5063180;28;20090;-56
2021/09/14 09:30:54;;;;;;;24.48;9.82;;;;;;;21.87;64.62;100710.72;5054352;28;20017;-55
2021/09/14 09:33:23;;;;;;;18.10;9.50;;;;;;;21.87;64.63;100719.75;5059761;28;20527;-57
2021/09/14 09:35:49;;;;;;;18.55;9.13;;;;;;;21.87;64.37;100713.47;5064581;28;20032;-55
2021/09/14 09:38:15;;;;;;;17.63;9.13;;;;;;;21.87;64.21;100717.03;5062039;28;20029;-56
2021/09/14 09:40:43;;;;;;;19.48;8.70;;;;;;;21.88;64.50;100715.94;5062849;28;20103;-55
2021/09/14 09:43:10;;;;;;;17.05;8.30;;;;;;;21.88;64.57;100713.19;5058046;28;20388;-56
2021/09/14 09:45:43;;;;;;;19.42;9.23;;;;;;;21.89;64.19;100708.56;5061179;28;20020;-56
2021/09/14 09:48:10;;;;;;;18.55;9.27;;;;;;;21.88;63.99;100710.47;5060126;28;20032;-57
2021/09/14 09:50:37;;;;;;;20.45;9.95;;;;;;;21.89;64.39;100714.06;5062831;28;20027;-56
2021/09/14 09:53:05;;;;;;;22.65;10.07;;;;;;;21.89;64.26;100709.41;5056786;28;20017;-57
2021/09/14 09:55:33;;;;;;;16.52;8.68;;;;;;;21.90;64.31;100712.97;5058522;28;20021;-55
2021/09/14 09:57:59;;;;;;;17.27;8.88;;;;;;;21.90;64.09;100702.84;5058997;28;20025;-56
2021/09/14 10:00:25;;;;;;;15.23;9.05;;;;;;;21.90;64.09;100719.25;5056101;28;20033;-55
2021/09/14 10:03:01;;;;;;;16.77;8.65;;;;;;;21.90;63.92;100713.78;5062134;28;20040;-56
2021/09/14 10:05:29;;;;;;;16.85;10.18;;;;;;;21.92;64.03;100716.28;5059208;28;20020;-56
2021/09/14 10:07:56;;;;;;;16.50;8.48;;;;;;;21.90;63.93;100708.31;5061401;28;20025;-57
2021/09/14 10:10:33;;;;;;;16.83;8.63;;;;;;;21.90;63.99;100713.78;5053198;28;20035;-57
2021/09/14 10:13:04;;;;;;;16.70;8.60;;;;;;;21.91;64.08;100723.66;5066180;28;20391;-56
2021/09/14 10:15:40;;;;;;;13.77;7.85;;;;;;;21.91;64.07;100718.19;5059485;28;20027;-54
2021/09/14 10:18:07;;;;;;;17.92;8.70;;;;;;;21.91;64.15;100720.94;5059270;28;20083;-56
2021/09/14 10:20:43;;;;;;;15.07;8.73;;;;;;;21.91;64.12;100729.16;5056387;28;20021;-56
2021/09/14 10:23:18;;;;;;;17.95;9.18;;;;;;;21.91;64.03;100723.66;5058227;28;20056;-55
2021/09/14 10:25:51;;;;;;;19.30;9.27;;;;;;;21.90;64.19;100721.16;5056942;28;20028;-57
2021/09/14 10:28:19;;;;;;;18.00;8.35;;;;;;;21.90;63.84;100724.72;5055390;28;20028;-56
2021/09/14 10:30:46;;;;;;;15.75;8.57;;;;;;;21.90;64.11;100730.22;5061616;28;20055;-56
2021/09/14 10:33:19;;;;;;;18.17;8.73;;;;;;;21.92;63.95;100735.44;5059164;28;20025;-56
2021/09/14 10:35:46;;;;;;;17.75;8.60;;;;;;;21.90;63.99;100737.59;5062872;28;20087;-55
2021/09/14 10:38:13;;;;;;;15.55;8.55;;;;;;;21.90;63.92;100743.91;5056853;28;20017;-57
2021/09/14 10:40:41;;;;;;;13.93;8.40;;;;;;;21.89;63.89;100736.78;5060636;28;20036;-56
2021/09/14 10:43:07;;;;;;;15.82;8.80;;;;;;;21.89;63.95;100731.31;5059646;28;20032;-54
2021/09/14 10:45:42;;;;;;;14.68;8.23;;;;;;;21.90;64.13;100732.94;5060566;28;20020;-57
2021/09/14 10:48:23;;;;;;;15.75;8.90;;;;;;;21.90;64.31;100735.69;5057668;28;20025;-56
2021/09/14 10:50:48;;;;;;;15.02;8.02;;;;;;;21.90;63.93;100735.69;5059090;28;20031;-57
2021/09/14 10:53:29;;;;;;;15.18;7.85;;;;;;;21.91;64.35;100740.09;5057024;28;20438;-56
2021/09/14 10:55:59;;;;;;;15.75;8.02;;;;;;;21.90;64.21;100738.41;5059032;28;20028;-54
2021/09/14 10:58:26;;;;;;;17.00;8.55;;;;;;;21.90;64.30;100740.34;5062257;28;20024;-55
2021/09/14 11:00:53;;;;;;;14.02;7.72;;;;;;;21.92;64.03;100743.66;5056211;28;20033;-56
2021/09/14 11:03:19;;;;;;;12.90;7.53;;;;;;;21.91;64.24;100740.09;5054343;28;20052;-56
2021/09/14 11:05:52;;;;;;;11.25;7.70;;;;;;;21.93;63.87;100737.09;5062826;28;20053;-56
2021/09/14 11:08:22;;;;;;;;;;;;;;;21.92;63.98;100736.28;5060607;28;20078;-56
2021/09/14 11:10:47;;;;;;;13.05;7.60;;;;;;;21.93;63.97;100739.81;5063411;28;19908;-57
2021/09/14 11:13:24;;;;;;;13.38;7.60;;;;;;;21.94;64.24;100734.13;5068977;28;20035;-57
2021/09/14 11:16:03;;;;;;;14.30;7.15;;;;;;;21.93;64.09;100728.88;5063103;28;20459;-57
2021/09/14 11:18:32;;;;;;;15.45;7.63;;;;;;;21.94;64.20;100722.34;5056234;28;20052;-56
2021/09/14 11:21:08;;;;;;;13.13;6.53;;;;;;;21.94;64.17;100725.09;5062345;28;20372;-54
2021/09/14 11:23:35;;;;;;;13.07;7.57;;;;;;;21.95;64.33;100719.34;5064186;28;20029;-56
2021/09/14 11:26:02;;;;;;;13.05;6.85;;;;;;;21.95;64.05;100721.25;5054119;28;20077;-56
2021/09/14 11:28:27;;;;;;;12.30;7.10;;;;;;;21.97;64.09;100731.97;5062190;28;20039;-57
2021/09/14 11:30:58;;;;;;;10.25;6.50;;;;;;;21.97;63.98;100730.03;5065391;28;20028;-56
2021/09/14 11:33:26;;;;;;;14.40;7.65;;;;;;;21.97;64.13;100731.97;5060298;28;20056;-59
2021/09/14 11:35:53;;;;;;;11.30;6.60;;;;;;;21.97;64.38;100723.75;5060717;28;20489;-56
2021/09/14 11:38:19;;;;;;;11.32;7.20;;;;;;;21.96;63.95;100720.16;5056999;28;20439;-56
2021/09/14 11:40:49;;;;;;;10.13;6.60;;;;;;;21.98;64.07;100719.91;5064061;28;20073;-57
2021/09/14 11:43:23;;;;;;;12.48;7.13;;;;;;;21.97;63.99;100721.00;5062117;28;20105;-57
2021/09/14 11:45:49;;;;;;;13.10;7.10;;;;;;;21.99;64.18;100724.28;5064357;28;20089;-57
2021/09/14 11:48:21;;;;;;;11.32;6.75;;;;;;;21.98;64.16;100723.47;5061030;28;20024;-57
2021/09/14 11:50:47;;;;;;;13.00;7.18;;;;;;;21.98;64.05;100725.38;5062261;28;20021;-57
2021/09/14 11:53:14;;;;;;;10.20;6.40;;;;;;;21.99;64.23;100727.03;5062528;28;20024;-54
2021/09/14 11:55:42;;;;;;;11.75;6.05;;;;;;;21.99;64.24;100719.69;5060591;28;20035;-54
2021/09/14 11:58:08;;;;;;;12.45;6.85;;;;;;;21.99;64.39;100725.16;5064259;28;20032;-56
2021/09/14 12:00:35;;;;;;;11.43;6.75;;;;;;;21.98;64.44;100723.47;5058537;28;20021;-55
2021/09/14 12:03:01;;;;;;;8.90;5.85;;;;;;;21.99;63.99;100724.28;5054990;28;20017;-56
2021/09/14 12:05:27;;;;;;;11.77;7.38;;;;;;;21.99;64.27;100724.28;5066241;28;20026;-56
2021/09/14 12:07:57;;;;;;;14.75;7.10;;;;;;;21.99;63.99;100719.69;5059740;28;20021;-56
2021/09/14 12:10:23;;;;;;;9.90;6.60;;;;;;;21.98;64.21;100725.38;5058203;28;20053;-56
2021/09/14 12:12:53;;;;;;;10.98;6.22;;;;;;;21.99;64.07;100724.28;5066430;28;20029;-56
2021/09/14 12:15:29;;;;;;;12.40;6.68;;;;;;;21.99;64.38;100730.63;5063077;28;20016;-56